sensor_id;sensor_type;location;lat;lon;timestamp;temperature;humidity
21275;DHT22;36472;52.170;20.884;2022-10-16T00:00:09;27.80;51.30
21275;DHT22;36472;52.170;20.884;2022-10-16T00:02:59;27.90;50.50
21275;DHT22;36472;52.170;20.884;2022-10-16T00:05:28;27.90;50.20
21275;DHT22;36472;52.170;20.884;2022-10-16T00:07:57;28.00;50.20
21275;DHT22;36472;52.170;20.884;2022-10-16T00:10:27;28.10;50.40
21275;DHT22;36472;52.170;20.884;2022-10-16T00:12:55;28.10;50.30
21275;DHT22;36472;52.170;20.884;2022-10-16T00:15:24;28.20;50.40
21275;DHT22;36472;52.170;20.884;2022-10-16T00:17:53;28.20;50.40
21275;DHT22;36472;52.170;20.884;2022-10-16T00:20:22;28.20;50.90
21275;DHT22;36472;52.170;20.884;2022-10-16T00:23:09;28.10;49.70
21275;DHT22;36472;52.170;20.884;2022-10-16T00:25:39;28.00;49.50
21275;DHT22;36472;52.170;20.884;2022-10-16T00:28:08;28.00;49.60
21275;DHT22;36472;52.170;20.884;2022-10-16T00:30:37;27.90;49.40
21275;DHT22;36472;52.170;20.884;2022-10-16T00:33:07;27.90;49.30
21275;DHT22;36472;52.170;20.884;2022-10-16T00:35:35;27.90;49.90
21275;DHT22;36472;52.170;20.884;2022-10-16T00:38:04;27.90;49.50
21275;DHT22;36472;52.170;20.884;2022-10-16T00:40:32;27.90;49.20
21275;DHT22;36472;52.170;20.884;2022-10-16T00:43:04;27.90;49.50
21275;DHT22;36472;52.170;20.884;2022-10-16T00:45:37;27.90;49.80
21275;DHT22;36472;52.170;20.884;2022-10-16T00:48:10;27.90;49.10
21275;DHT22;36472;52.170;20.884;2022-10-16T00:50:42;27.80;49.20
21275;DHT22;36472;52.170;20.884;2022-10-16T00:53:11;27.80;50.00
21275;DHT22;36472;52.170;20.884;2022-10-16T00:55:40;27.90;49.70
21275;DHT22;36472;52.170;20.884;2022-10-16T00:58:11;28.00;49.80
21275;DHT22;36472;52.170;20.884;2022-10-16T01:00:39;28.10;50.00
21275;DHT22;36472;52.170;20.884;2022-10-16T01:03:23;28.10;49.80
21275;DHT22;36472;52.170;20.884;2022-10-16T01:06:03;28.20;49.80
21275;DHT22;36472;52.170;20.884;2022-10-16T01:08:53;28.20;49.50
21275;DHT22;36472;52.170;20.884;2022-10-16T01:11:33;28.20;49.60
21275;DHT22;36472;52.170;20.884;2022-10-16T01:14:11;28.20;49.40
21275;DHT22;36472;52.170;20.884;2022-10-16T01:16:50;28.20;49.20
21275;DHT22;36472;52.170;20.884;2022-10-16T01:19:36;28.20;48.90
21275;DHT22;36472;52.170;20.884;2022-10-16T01:22:17;28.20;49.20
21275;DHT22;36472;52.170;20.884;2022-10-16T01:24:50;28.10;48.70
21275;DHT22;36472;52.170;20.884;2022-10-16T01:27:25;28.10;48.90
21275;DHT22;36472;52.170;20.884;2022-10-16T01:30:02;28.00;48.40
21275;DHT22;36472;52.170;20.884;2022-10-16T01:32:39;28.10;49.00
21275;DHT22;36472;52.170;20.884;2022-10-16T01:35:14;28.10;49.40
21275;DHT22;36472;52.170;20.884;2022-10-16T01:37:51;28.20;49.90
21275;DHT22;36472;52.170;20.884;2022-10-16T01:40:26;28.20;49.80
21275;DHT22;36472;52.170;20.884;2022-10-16T01:43:00;28.20;50.00
21275;DHT22;36472;52.170;20.884;2022-10-16T01:45:33;28.20;49.00
21275;DHT22;36472;52.170;20.884;2022-10-16T01:48:05;28.20;49.50
21275;DHT22;36472;52.170;20.884;2022-10-16T01:50:39;28.20;49.90
21275;DHT22;36472;52.170;20.884;2022-10-16T01:53:12;28.20;49.70
21275;DHT22;36472;52.170;20.884;2022-10-16T01:55:46;28.20;49.30
21275;DHT22;36472;52.170;20.884;2022-10-16T01:58:18;28.10;49.30
21275;DHT22;36472;52.170;20.884;2022-10-16T02:00:48;28.10;49.50
21275;DHT22;36472;52.170;20.884;2022-10-16T02:03:19;28.10;49.50
21275;DHT22;36472;52.170;20.884;2022-10-16T02:05:51;28.10;49.20
21275;DHT22;36472;52.170;20.884;2022-10-16T02:08:24;28.00;49.50
21275;DHT22;36472;52.170;20.884;2022-10-16T02:10:55;28.00;49.40
21275;DHT22;36472;52.170;20.884;2022-10-16T02:13:30;28.00;49.30
21275;DHT22;36472;52.170;20.884;2022-10-16T02:16:01;28.00;49.40
21275;DHT22;36472;52.170;20.884;2022-10-16T02:18:30;28.00;49.50
21275;DHT22;36472;52.170;20.884;2022-10-16T02:21:02;27.90;49.50
21275;DHT22;36472;52.170;20.884;2022-10-16T02:23:47;27.90;49.50
21275;DHT22;36472;52.170;20.884;2022-10-16T02:26:25;27.90;49.70
21275;DHT22;36472;52.170;20.884;2022-10-16T02:29:01;27.90;49.90
21275;DHT22;36472;52.170;20.884;2022-10-16T02:31:35;27.90;50.10
21275;DHT22;36472;52.170;20.884;2022-10-16T02:34:10;27.90;50.00
21275;DHT22;36472;52.170;20.884;2022-10-16T02:36:42;27.80;49.90
21275;DHT22;36472;52.170;20.884;2022-10-16T02:39:12;27.80;49.90
21275;DHT22;36472;52.170;20.884;2022-10-16T02:41:43;27.80;50.00
21275;DHT22;36472;52.170;20.884;2022-10-16T02:44:12;27.70;50.00
21275;DHT22;36472;52.170;20.884;2022-10-16T02:46:41;27.70;50.30
21275;DHT22;36472;52.170;20.884;2022-10-16T02:49:10;27.70;50.10
21275;DHT22;36472;52.170;20.884;2022-10-16T02:51:38;27.70;50.20
21275;DHT22;36472;52.170;20.884;2022-10-16T02:54:07;27.70;50.00
21275;DHT22;36472;52.170;20.884;2022-10-16T02:56:36;27.70;49.80
21275;DHT22;36472;52.170;20.884;2022-10-16T02:59:05;27.70;49.80
21275;DHT22;36472;52.170;20.884;2022-10-16T03:01:35;27.60;49.60
21275;DHT22;36472;52.170;20.884;2022-10-16T03:04:03;27.70;49.60
21275;DHT22;36472;52.170;20.884;2022-10-16T03:06:32;27.60;49.70
21275;DHT22;36472;52.170;20.884;2022-10-16T03:09:01;27.60;50.10
21275;DHT22;36472;52.170;20.884;2022-10-16T03:11:30;27.60;50.30
21275;DHT22;36472;52.170;20.884;2022-10-16T03:13:58;27.60;50.10
21275;DHT22;36472;52.170;20.884;2022-10-16T03:16:27;27.70;49.70
21275;DHT22;36472;52.170;20.884;2022-10-16T03:18:57;27.70;49.70
21275;DHT22;36472;52.170;20.884;2022-10-16T03:21:26;27.60;50.10
21275;DHT22;36472;52.170;20.884;2022-10-16T03:23:54;27.60;50.00
21275;DHT22;36472;52.170;20.884;2022-10-16T03:26:23;27.60;50.00
21275;DHT22;36472;52.170;20.884;2022-10-16T03:28:52;27.60;50.00
21275;DHT22;36472;52.170;20.884;2022-10-16T03:31:21;27.60;50.10
21275;DHT22;36472;52.170;20.884;2022-10-16T03:33:49;27.50;49.60
21275;DHT22;36472;52.170;20.884;2022-10-16T03:36:19;27.50;50.00
21275;DHT22;36472;52.170;20.884;2022-10-16T03:38:48;27.50;49.90
21275;DHT22;36472;52.170;20.884;2022-10-16T03:41:17;27.50;50.00
21275;DHT22;36472;52.170;20.884;2022-10-16T03:43:45;27.50;50.10
21275;DHT22;36472;52.170;20.884;2022-10-16T03:46:14;27.50;50.10
21275;DHT22;36472;52.170;20.884;2022-10-16T03:48:43;27.50;49.80
21275;DHT22;36472;52.170;20.884;2022-10-16T03:51:12;27.50;49.80
21275;DHT22;36472;52.170;20.884;2022-10-16T03:53:42;27.50;50.10
21275;DHT22;36472;52.170;20.884;2022-10-16T03:56:10;27.40;49.90
21275;DHT22;36472;52.170;20.884;2022-10-16T03:58:39;27.30;49.90
21275;DHT22;36472;52.170;20.884;2022-10-16T04:01:08;27.30;50.10
21275;DHT22;36472;52.170;20.884;2022-10-16T04:03:36;27.20;49.90
21275;DHT22;36472;52.170;20.884;2022-10-16T04:06:05;27.20;50.10
21275;DHT22;36472;52.170;20.884;2022-10-16T04:08:34;27.20;50.10
21275;DHT22;36472;52.170;20.884;2022-10-16T04:11:05;27.20;50.40
21275;DHT22;36472;52.170;20.884;2022-10-16T04:13:34;27.20;50.40
21275;DHT22;36472;52.170;20.884;2022-10-16T04:16:03;27.10;50.30
21275;DHT22;36472;52.170;20.884;2022-10-16T04:18:31;27.10;50.40
21275;DHT22;36472;52.170;20.884;2022-10-16T04:21:02;27.10;50.60
21275;DHT22;36472;52.170;20.884;2022-10-16T04:23:32;27.00;50.50
21275;DHT22;36472;52.170;20.884;2022-10-16T04:26:01;27.10;50.60
21275;DHT22;36472;52.170;20.884;2022-10-16T04:28:31;27.10;50.60
21275;DHT22;36472;52.170;20.884;2022-10-16T04:31:00;27.10;50.70
21275;DHT22;36472;52.170;20.884;2022-10-16T04:33:32;27.10;50.60
21275;DHT22;36472;52.170;20.884;2022-10-16T04:36:02;27.10;50.60
21275;DHT22;36472;52.170;20.884;2022-10-16T04:38:32;27.10;50.60
21275;DHT22;36472;52.170;20.884;2022-10-16T04:41:01;27.10;50.60
21275;DHT22;36472;52.170;20.884;2022-10-16T04:43:30;27.00;50.70
21275;DHT22;36472;52.170;20.884;2022-10-16T04:45:59;27.00;50.60
21275;DHT22;36472;52.170;20.884;2022-10-16T04:48:28;27.00;50.70
21275;DHT22;36472;52.170;20.884;2022-10-16T04:50:57;26.90;50.60
21275;DHT22;36472;52.170;20.884;2022-10-16T04:53:26;26.80;50.60
21275;DHT22;36472;52.170;20.884;2022-10-16T04:55:55;26.80;50.70
21275;DHT22;36472;52.170;20.884;2022-10-16T04:58:24;26.60;50.80
21275;DHT22;36472;52.170;20.884;2022-10-16T05:00:54;26.60;51.00
21275;DHT22;36472;52.170;20.884;2022-10-16T05:03:23;26.50;51.00
21275;DHT22;36472;52.170;20.884;2022-10-16T05:05:51;26.50;51.20
21275;DHT22;36472;52.170;20.884;2022-10-16T05:08:20;26.50;51.20
21275;DHT22;36472;52.170;20.884;2022-10-16T05:10:49;26.50;51.90
21275;DHT22;36472;52.170;20.884;2022-10-16T05:13:17;26.50;51.20
21275;DHT22;36472;52.170;20.884;2022-10-16T05:15:47;26.50;51.30
21275;DHT22;36472;52.170;20.884;2022-10-16T05:18:17;26.50;51.10
21275;DHT22;36472;52.170;20.884;2022-10-16T05:20:46;26.50;51.20
21275;DHT22;36472;52.170;20.884;2022-10-16T05:23:15;26.50;51.20
21275;DHT22;36472;52.170;20.884;2022-10-16T05:25:51;26.50;51.20
21275;DHT22;36472;52.170;20.884;2022-10-16T05:28:21;26.40;51.10
21275;DHT22;36472;52.170;20.884;2022-10-16T05:30:50;26.40;51.30
21275;DHT22;36472;52.170;20.884;2022-10-16T05:33:22;26.30;51.30
21275;DHT22;36472;52.170;20.884;2022-10-16T05:35:52;26.30;51.40
21275;DHT22;36472;52.170;20.884;2022-10-16T05:38:21;26.20;51.50
21275;DHT22;36472;52.170;20.884;2022-10-16T05:40:53;26.10;51.70
21275;DHT22;36472;52.170;20.884;2022-10-16T05:43:21;26.00;51.90
21275;DHT22;36472;52.170;20.884;2022-10-16T05:45:55;26.00;52.10
21275;DHT22;36472;52.170;20.884;2022-10-16T05:48:25;26.10;52.10
21275;DHT22;36472;52.170;20.884;2022-10-16T05:50:58;26.10;52.10
21275;DHT22;36472;52.170;20.884;2022-10-16T05:53:28;26.10;52.00
21275;DHT22;36472;52.170;20.884;2022-10-16T05:55:58;26.10;51.90
21275;DHT22;36472;52.170;20.884;2022-10-16T05:58:29;26.10;52.00
21275;DHT22;36472;52.170;20.884;2022-10-16T06:01:02;26.00;51.90
21275;DHT22;36472;52.170;20.884;2022-10-16T06:03:34;26.00;52.10
21275;DHT22;36472;52.170;20.884;2022-10-16T06:06:08;26.10;52.20
21275;DHT22;36472;52.170;20.884;2022-10-16T06:08:39;26.00;52.20
21275;DHT22;36472;52.170;20.884;2022-10-16T06:11:11;26.00;52.40
21275;DHT22;36472;52.170;20.884;2022-10-16T06:13:41;25.80;52.50
21275;DHT22;36472;52.170;20.884;2022-10-16T06:16:11;25.80;52.90
21275;DHT22;36472;52.170;20.884;2022-10-16T06:18:41;25.70;52.80
21275;DHT22;36472;52.170;20.884;2022-10-16T06:21:12;25.80;52.90
21275;DHT22;36472;52.170;20.884;2022-10-16T06:23:44;25.80;53.00
21275;DHT22;36472;52.170;20.884;2022-10-16T06:26:15;25.80;52.90
21275;DHT22;36472;52.170;20.884;2022-10-16T06:28:45;25.90;52.90
21275;DHT22;36472;52.170;20.884;2022-10-16T06:31:16;25.80;52.90
21275;DHT22;36472;52.170;20.884;2022-10-16T06:33:50;25.80;52.90
21275;DHT22;36472;52.170;20.884;2022-10-16T06:36:20;25.70;52.80
21275;DHT22;36472;52.170;20.884;2022-10-16T06:38:49;25.80;53.30
21275;DHT22;36472;52.170;20.884;2022-10-16T06:41:20;25.80;53.20
21275;DHT22;36472;52.170;20.884;2022-10-16T06:43:50;25.90;53.20
21275;DHT22;36472;52.170;20.884;2022-10-16T06:46:22;26.10;52.90
21275;DHT22;36472;52.170;20.884;2022-10-16T06:48:53;26.30;52.50
21275;DHT22;36472;52.170;20.884;2022-10-16T06:51:23;26.20;52.00
21275;DHT22;36472;52.170;20.884;2022-10-16T06:53:54;26.20;52.40
21275;DHT22;36472;52.170;20.884;2022-10-16T06:56:31;26.30;52.60
21275;DHT22;36472;52.170;20.884;2022-10-16T06:59:01;26.50;52.30
21275;DHT22;36472;52.170;20.884;2022-10-16T07:01:31;26.60;52.10
21275;DHT22;36472;52.170;20.884;2022-10-16T07:04:02;26.80;51.80
21275;DHT22;36472;52.170;20.884;2022-10-16T07:06:32;26.90;51.40
21275;DHT22;36472;52.170;20.884;2022-10-16T07:09:04;27.10;51.50
21275;DHT22;36472;52.170;20.884;2022-10-16T07:11:34;27.10;51.10
21275;DHT22;36472;52.170;20.884;2022-10-16T07:14:04;27.20;51.00
21275;DHT22;36472;52.170;20.884;2022-10-16T07:16:37;27.20;50.90
21275;DHT22;36472;52.170;20.884;2022-10-16T07:19:08;27.20;51.00
21275;DHT22;36472;52.170;20.884;2022-10-16T07:21:39;27.20;51.10
21275;DHT22;36472;52.170;20.884;2022-10-16T07:24:12;27.20;51.30
21275;DHT22;36472;52.170;20.884;2022-10-16T07:26:43;27.20;52.10
21275;DHT22;36472;52.170;20.884;2022-10-16T07:29:14;27.30;51.40
21275;DHT22;36472;52.170;20.884;2022-10-16T07:31:45;27.30;51.40
21275;DHT22;36472;52.170;20.884;2022-10-16T07:34:17;27.30;51.30
21275;DHT22;36472;52.170;20.884;2022-10-16T07:36:49;27.30;51.40
21275;DHT22;36472;52.170;20.884;2022-10-16T07:39:18;27.40;51.60
21275;DHT22;36472;52.170;20.884;2022-10-16T07:41:47;27.50;51.50
21275;DHT22;36472;52.170;20.884;2022-10-16T07:44:16;27.70;51.70
21275;DHT22;36472;52.170;20.884;2022-10-16T07:46:45;27.80;51.30
21275;DHT22;36472;52.170;20.884;2022-10-16T07:49:15;27.90;51.20
21275;DHT22;36472;52.170;20.884;2022-10-16T07:51:43;28.00;51.40
21275;DHT22;36472;52.170;20.884;2022-10-16T07:54:12;27.90;51.60
21275;DHT22;36472;52.170;20.884;2022-10-16T07:56:41;27.90;51.20
21275;DHT22;36472;52.170;20.884;2022-10-16T07:59:10;27.90;51.30
21275;DHT22;36472;52.170;20.884;2022-10-16T08:01:39;28.00;51.20
21275;DHT22;36472;52.170;20.884;2022-10-16T08:04:09;27.90;51.20
21275;DHT22;36472;52.170;20.884;2022-10-16T08:06:40;28.00;51.60
21275;DHT22;36472;52.170;20.884;2022-10-16T08:09:09;28.00;51.30
21275;DHT22;36472;52.170;20.884;2022-10-16T08:11:38;28.20;51.20
21275;DHT22;36472;52.170;20.884;2022-10-16T08:14:07;28.30;50.60
21275;DHT22;36472;52.170;20.884;2022-10-16T08:16:35;28.50;50.60
21275;DHT22;36472;52.170;20.884;2022-10-16T08:19:04;28.80;50.80
21275;DHT22;36472;52.170;20.884;2022-10-16T08:21:33;29.00;50.20
21275;DHT22;36472;52.170;20.884;2022-10-16T08:24:03;29.10;49.80
21275;DHT22;36472;52.170;20.884;2022-10-16T08:26:32;29.20;49.30
21275;DHT22;36472;52.170;20.884;2022-10-16T08:29:00;29.40;49.50
21275;DHT22;36472;52.170;20.884;2022-10-16T08:31:29;29.60;49.20
21275;DHT22;36472;52.170;20.884;2022-10-16T08:33:58;29.70;48.80
21275;DHT22;36472;52.170;20.884;2022-10-16T08:36:26;30.00;49.10
21275;DHT22;36472;52.170;20.884;2022-10-16T08:38:55;30.30;48.80
21275;DHT22;36472;52.170;20.884;2022-10-16T08:45:12;30.70;47.80
21275;DHT22;36472;52.170;20.884;2022-10-16T08:47:55;30.80;47.30
21275;DHT22;36472;52.170;20.884;2022-10-16T08:50:33;30.90;47.00
21275;DHT22;36472;52.170;20.884;2022-10-16T08:53:09;31.10;47.20
21275;DHT22;36472;52.170;20.884;2022-10-16T08:55:46;31.10;47.10
21275;DHT22;36472;52.170;20.884;2022-10-16T08:58:20;31.30;47.20
21275;DHT22;36472;52.170;20.884;2022-10-16T09:00:54;31.40;46.70
21275;DHT22;36472;52.170;20.884;2022-10-16T09:03:35;31.50;46.60
21275;DHT22;36472;52.170;20.884;2022-10-16T09:06:23;31.50;45.80
21275;DHT22;36472;52.170;20.884;2022-10-16T09:09:14;31.60;46.00
21275;DHT22;36472;52.170;20.884;2022-10-16T09:12:00;31.60;45.90
21275;DHT22;36472;52.170;20.884;2022-10-16T09:14:44;31.60;46.40
21275;DHT22;36472;52.170;20.884;2022-10-16T09:17:30;31.60;46.90
21275;DHT22;36472;52.170;20.884;2022-10-16T09:20:18;31.70;46.60
21275;DHT22;36472;52.170;20.884;2022-10-16T09:23:08;31.70;47.00
21275;DHT22;36472;52.170;20.884;2022-10-16T09:25:45;32.10;46.40
21275;DHT22;36472;52.170;20.884;2022-10-16T09:28:16;32.60;45.80
21275;DHT22;36472;52.170;20.884;2022-10-16T09:30:48;33.00;44.90
21275;DHT22;36472;52.170;20.884;2022-10-16T09:33:20;33.10;43.80
21275;DHT22;36472;52.170;20.884;2022-10-16T09:35:53;33.40;44.50
21275;DHT22;36472;52.170;20.884;2022-10-16T09:38:27;33.50;43.80
21275;DHT22;36472;52.170;20.884;2022-10-16T09:40:58;33.50;43.90
21275;DHT22;36472;52.170;20.884;2022-10-16T09:43:34;33.40;43.80
21275;DHT22;36472;52.170;20.884;2022-10-16T09:46:21;33.50;44.40
21275;DHT22;36472;52.170;20.884;2022-10-16T09:48:55;33.30;44.50
21275;DHT22;36472;52.170;20.884;2022-10-16T09:51:27;33.20;44.40
21275;DHT22;36472;52.170;20.884;2022-10-16T09:53:59;33.00;44.50
21275;DHT22;36472;52.170;20.884;2022-10-16T09:56:30;33.00;44.70
21275;DHT22;36472;52.170;20.884;2022-10-16T09:59:02;33.00;45.40
21275;DHT22;36472;52.170;20.884;2022-10-16T10:01:41;33.00;44.90
21275;DHT22;36472;52.170;20.884;2022-10-16T10:04:14;33.00;44.30
21275;DHT22;36472;52.170;20.884;2022-10-16T10:06:45;32.80;44.60
21275;DHT22;36472;52.170;20.884;2022-10-16T10:09:18;32.60;44.60
21275;DHT22;36472;52.170;20.884;2022-10-16T10:11:51;32.60;44.80
21275;DHT22;36472;52.170;20.884;2022-10-16T10:14:27;32.70;45.60
21275;DHT22;36472;52.170;20.884;2022-10-16T10:17:13;32.80;45.40
21275;DHT22;36472;52.170;20.884;2022-10-16T10:19:49;32.70;45.20
21275;DHT22;36472;52.170;20.884;2022-10-16T10:22:29;32.50;44.40
21275;DHT22;36472;52.170;20.884;2022-10-16T10:25:12;32.20;44.90
21275;DHT22;36472;52.170;20.884;2022-10-16T10:28:04;32.10;45.70
21275;DHT22;36472;52.170;20.884;2022-10-16T10:30:47;32.10;46.00
21275;DHT22;36472;52.170;20.884;2022-10-16T10:33:31;32.30;45.40
21275;DHT22;36472;52.170;20.884;2022-10-16T10:36:16;32.30;45.40
21275;DHT22;36472;52.170;20.884;2022-10-16T10:39:00;32.40;45.80
21275;DHT22;36472;52.170;20.884;2022-10-16T10:44:57;32.60;45.50
21275;DHT22;36472;52.170;20.884;2022-10-16T10:47:45;32.70;45.50
21275;DHT22;36472;52.170;20.884;2022-10-16T10:50:26;32.70;45.40
21275;DHT22;36472;52.170;20.884;2022-10-16T10:53:11;32.70;45.10
21275;DHT22;36472;52.170;20.884;2022-10-16T10:55:54;32.70;45.10
21275;DHT22;36472;52.170;20.884;2022-10-16T10:58:43;32.80;45.60
21275;DHT22;36472;52.170;20.884;2022-10-16T11:01:28;32.80;45.00
21275;DHT22;36472;52.170;20.884;2022-10-16T11:07:24;33.00;45.20
21275;DHT22;36472;52.170;20.884;2022-10-16T11:09:59;33.00;45.10
21275;DHT22;36472;52.170;20.884;2022-10-16T11:12:36;33.10;45.00
21275;DHT22;36472;52.170;20.884;2022-10-16T11:15:14;32.80;45.10
21275;DHT22;36472;52.170;20.884;2022-10-16T11:17:50;32.70;45.20
21275;DHT22;36472;52.170;20.884;2022-10-16T11:20:26;32.70;45.30
21275;DHT22;36472;52.170;20.884;2022-10-16T11:23:05;32.80;45.70
21275;DHT22;36472;52.170;20.884;2022-10-16T11:25:39;32.70;44.60
21275;DHT22;36472;52.170;20.884;2022-10-16T11:28:11;32.50;45.30
21275;DHT22;36472;52.170;20.884;2022-10-16T11:30:46;32.60;46.10
21275;DHT22;36472;52.170;20.884;2022-10-16T11:33:28;32.60;45.80
21275;DHT22;36472;52.170;20.884;2022-10-16T11:36:08;32.70;45.50
21275;DHT22;36472;52.170;20.884;2022-10-16T11:38:49;32.80;45.80
21275;DHT22;36472;52.170;20.884;2022-10-16T11:41:27;32.90;45.90
21275;DHT22;36472;52.170;20.884;2022-10-16T11:44:14;32.90;45.00
21275;DHT22;36472;52.170;20.884;2022-10-16T11:46:53;33.00;45.40
21275;DHT22;36472;52.170;20.884;2022-10-16T11:49:52;33.10;45.20
21275;DHT22;36472;52.170;20.884;2022-10-16T11:52:30;33.00;44.60
21275;DHT22;36472;52.170;20.884;2022-10-16T11:55:14;33.00;44.90
21275;DHT22;36472;52.170;20.884;2022-10-16T11:57:47;33.00;45.10
21275;DHT22;36472;52.170;20.884;2022-10-16T12:00:22;32.90;45.30
21275;DHT22;36472;52.170;20.884;2022-10-16T12:02:58;32.80;46.30
21275;DHT22;36472;52.170;20.884;2022-10-16T12:05:39;32.80;45.40
21275;DHT22;36472;52.170;20.884;2022-10-16T12:08:27;32.80;45.70
21275;DHT22;36472;52.170;20.884;2022-10-16T12:11:08;32.60;45.60
21275;DHT22;36472;52.170;20.884;2022-10-16T12:13:40;32.50;46.40
21275;DHT22;36472;52.170;20.884;2022-10-16T12:16:21;32.40;46.20
21275;DHT22;36472;52.170;20.884;2022-10-16T12:19:13;32.60;45.90
21275;DHT22;36472;52.170;20.884;2022-10-16T12:21:44;32.70;45.60
21275;DHT22;36472;52.170;20.884;2022-10-16T12:24:22;32.70;45.50
21275;DHT22;36472;52.170;20.884;2022-10-16T12:27:00;32.80;46.40
21275;DHT22;36472;52.170;20.884;2022-10-16T12:29:34;32.70;45.60
21275;DHT22;36472;52.170;20.884;2022-10-16T12:32:22;32.70;45.30
21275;DHT22;36472;52.170;20.884;2022-10-16T12:35:20;32.60;45.60
21275;DHT22;36472;52.170;20.884;2022-10-16T12:37:52;32.70;45.90
21275;DHT22;36472;52.170;20.884;2022-10-16T12:40:27;32.80;46.30
21275;DHT22;36472;52.170;20.884;2022-10-16T12:43:11;32.90;46.30
21275;DHT22;36472;52.170;20.884;2022-10-16T12:46:00;32.90;46.00
21275;DHT22;36472;52.170;20.884;2022-10-16T12:48:31;32.10;47.00
21275;DHT22;36472;52.170;20.884;2022-10-16T12:51:23;32.30;46.80
21275;DHT22;36472;52.170;20.884;2022-10-16T12:54:00;32.20;46.60
21275;DHT22;36472;52.170;20.884;2022-10-16T12:56:37;32.30;47.00
21275;DHT22;36472;52.170;20.884;2022-10-16T12:59:28;32.50;46.40
21275;DHT22;36472;52.170;20.884;2022-10-16T13:02:24;32.60;47.10
21275;DHT22;36472;52.170;20.884;2022-10-16T13:05:19;32.50;47.00
21275;DHT22;36472;52.170;20.884;2022-10-16T13:08:22;32.50;46.50
21275;DHT22;36472;52.170;20.884;2022-10-16T13:11:07;32.50;46.60
21275;DHT22;36472;52.170;20.884;2022-10-16T13:14:09;32.70;46.90
21275;DHT22;36472;52.170;20.884;2022-10-16T13:16:57;32.70;46.90
21275;DHT22;36472;52.170;20.884;2022-10-16T13:19:38;32.70;47.00
21275;DHT22;36472;52.170;20.884;2022-10-16T13:22:21;32.70;47.00
21275;DHT22;36472;52.170;20.884;2022-10-16T13:25:08;32.70;47.10
21275;DHT22;36472;52.170;20.884;2022-10-16T13:27:51;32.70;47.10
21275;DHT22;36472;52.170;20.884;2022-10-16T13:30:25;32.60;47.70
21275;DHT22;36472;52.170;20.884;2022-10-16T13:33:02;32.60;47.10
21275;DHT22;36472;52.170;20.884;2022-10-16T13:35:34;32.50;46.80
21275;DHT22;36472;52.170;20.884;2022-10-16T13:38:15;32.50;47.20
21275;DHT22;36472;52.170;20.884;2022-10-16T13:40:55;32.60;47.20
21275;DHT22;36472;52.170;20.884;2022-10-16T13:43:28;32.50;47.50
21275;DHT22;36472;52.170;20.884;2022-10-16T13:46:01;32.50;47.50
21275;DHT22;36472;52.170;20.884;2022-10-16T13:48:34;32.50;47.90
21275;DHT22;36472;52.170;20.884;2022-10-16T13:51:06;32.50;47.70
21275;DHT22;36472;52.170;20.884;2022-10-16T13:53:41;32.50;47.80
21275;DHT22;36472;52.170;20.884;2022-10-16T13:56:12;32.40;47.70
21275;DHT22;36472;52.170;20.884;2022-10-16T13:58:42;32.30;47.70
21275;DHT22;36472;52.170;20.884;2022-10-16T14:01:17;32.30;47.80
21275;DHT22;36472;52.170;20.884;2022-10-16T14:03:50;32.30;47.80
21275;DHT22;36472;52.170;20.884;2022-10-16T14:06:21;32.30;47.40
21275;DHT22;36472;52.170;20.884;2022-10-16T14:08:53;32.30;47.90
21275;DHT22;36472;52.170;20.884;2022-10-16T14:11:27;32.20;47.50
21275;DHT22;36472;52.170;20.884;2022-10-16T14:13:57;32.10;47.30
21275;DHT22;36472;52.170;20.884;2022-10-16T14:16:28;32.10;48.00
21275;DHT22;36472;52.170;20.884;2022-10-16T14:19:03;32.20;48.60
21275;DHT22;36472;52.170;20.884;2022-10-16T14:21:34;32.30;49.30
21275;DHT22;36472;52.170;20.884;2022-10-16T14:24:10;32.30;48.40
21275;DHT22;36472;52.170;20.884;2022-10-16T14:26:44;32.30;48.90
21275;DHT22;36472;52.170;20.884;2022-10-16T14:29:18;32.30;49.10
21275;DHT22;36472;52.170;20.884;2022-10-16T14:31:55;32.30;49.20
21275;DHT22;36472;52.170;20.884;2022-10-16T14:34:29;32.30;49.40
21275;DHT22;36472;52.170;20.884;2022-10-16T14:37:02;32.30;49.30
21275;DHT22;36472;52.170;20.884;2022-10-16T14:39:37;32.30;49.40
21275;DHT22;36472;52.170;20.884;2022-10-16T14:42:14;32.30;49.40
21275;DHT22;36472;52.170;20.884;2022-10-16T14:44:47;32.30;49.60
21275;DHT22;36472;52.170;20.884;2022-10-16T14:47:19;32.20;49.30
21275;DHT22;36472;52.170;20.884;2022-10-16T14:49:54;32.20;49.00
21275;DHT22;36472;52.170;20.884;2022-10-16T14:52:25;32.20;49.50
21275;DHT22;36472;52.170;20.884;2022-10-16T14:54:54;32.20;49.90
21275;DHT22;36472;52.170;20.884;2022-10-16T14:57:26;32.10;50.00
21275;DHT22;36472;52.170;20.884;2022-10-16T14:59:59;32.10;49.20
21275;DHT22;36472;52.170;20.884;2022-10-16T15:02:30;32.00;49.30
21275;DHT22;36472;52.170;20.884;2022-10-16T15:05:12;32.00;49.30
21275;DHT22;36472;52.170;20.884;2022-10-16T15:07:43;31.90;48.80
21275;DHT22;36472;52.170;20.884;2022-10-16T15:10:13;31.90;48.90
21275;DHT22;36472;52.170;20.884;2022-10-16T15:12:43;31.80;49.10
21275;DHT22;36472;52.170;20.884;2022-10-16T15:15:24;31.80;49.20
21275;DHT22;36472;52.170;20.884;2022-10-16T15:17:59;31.80;50.10
21275;DHT22;36472;52.170;20.884;2022-10-16T15:20:31;31.80;50.00
21275;DHT22;36472;52.170;20.884;2022-10-16T15:23:04;31.80;50.20
21275;DHT22;36472;52.170;20.884;2022-10-16T15:25:38;31.80;49.90
21275;DHT22;36472;52.170;20.884;2022-10-16T15:28:10;31.80;50.20
21275;DHT22;36472;52.170;20.884;2022-10-16T15:30:40;31.70;50.30
21275;DHT22;36472;52.170;20.884;2022-10-16T15:33:12;31.70;50.20
21275;DHT22;36472;52.170;20.884;2022-10-16T15:35:46;31.70;49.80
21275;DHT22;36472;52.170;20.884;2022-10-16T15:38:16;31.60;50.00
21275;DHT22;36472;52.170;20.884;2022-10-16T15:40:47;31.50;50.00
21275;DHT22;36472;52.170;20.884;2022-10-16T15:43:16;31.40;49.40
21275;DHT22;36472;52.170;20.884;2022-10-16T15:45:59;31.30;50.10
21275;DHT22;36472;52.170;20.884;2022-10-16T15:48:30;31.20;50.10
21275;DHT22;36472;52.170;20.884;2022-10-16T15:51:00;31.20;50.50
21275;DHT22;36472;52.170;20.884;2022-10-16T15:53:34;31.20;50.50
21275;DHT22;36472;52.170;20.884;2022-10-16T15:56:03;31.30;50.70
21275;DHT22;36472;52.170;20.884;2022-10-16T15:58:33;31.30;50.90
21275;DHT22;36472;52.170;20.884;2022-10-16T16:01:02;31.30;51.00
21275;DHT22;36472;52.170;20.884;2022-10-16T16:03:32;31.30;50.90
21275;DHT22;36472;52.170;20.884;2022-10-16T16:06:09;31.30;50.80